Strona główna
METAR-TAF:

METAR-TAF

Lotnisko :

Port lotniczy Skyros

Skyros, Grecja

Szerokość geograficzna: 38-58-03N, Długość geograficzna: 024-29-14E, wysokość: 13 m

Aktualna obserwacja pogody

Raport powstał 27 minut temu, godzina 02:50 UTC
Wiatr 6 kt od północ
Temperatura 23°C
Wilgotność 83%
Ciśnienie 1016 hPa
Widzialność 10 km lub więcej
Brak chmur poniżej 1500 m i brak chmur cumulonimbus

METAR: LGSY 210250Z 36006KT CAVOK 23/20 Q1016

czas: 06:17 (03:17 UTC)

Prognoza

Raport powstał 1 godzina i 17 minut temu, godzina 02:00 UTC
Prognoza ważna od 21 godzina 03 UTC do 21 godzina 12 UTC
Wiatr 18 kt od północno-północny wschód
Widzialność 10 km lub więcej
Brak chmur poniżej 1500 m i brak chmur cumulonimbus
Stopniowe zmiany
od 21 godzina 04 UTC do 21 godzina 06 UTC
Wiatr 18 kt od północno-północny wschód w porywach dochodzący do 28 kt

TAF: LGSY 210200Z 2103/2112 02018KT CAVOK BECMG 2104/2106 02018G28KT

Obserwacja i prognoza pogody dla ponad 4000 lotnisk (raport METAR i TAF).

Dostępne stacje oznaczono żółtymi i czerwonymi punktami na mapie.

Najedź kursorem aby zobaczyć nazwę stacji.

Kliknij aby zobaczyć obserwacje i prognozy pogody.

Aby zmienić mapę: kliknij na zielony przycisk z czarnym krzyżykiem, aby powiększyć; na zielony przycisk z myślnikiem, aby pomniejszyć; na zielone strzałki, aby przejść do map sąsiednich.


METAR-TAF: